Time;durP1;ratioP1;P1;durP2;ratioP2;P2;SDS_P1;SDS_P2;PMS_P1;PMS_P2;Temp;Humidity;BMP_temperature;BMP_pressure;BME280_temperature;BME280_humidity;BME280_pressure;Samples;Min_cycle;Max_cycle;Signal;HPM_P1;HPM_P2
2021/11/09 00:00:10;;;;;;;11.40;6.20;;;7.50;64.20;;;;;;5031842;28;20479;-81
2021/11/09 00:02:38;;;;;;;14.53;6.57;;;7.40;64.60;;;;;;5006664;28;20029;-80
2021/11/09 00:05:07;;;;;;;13.80;6.77;;;7.40;64.90;;;;;;5028471;28;20162;-81
2021/11/09 00:07:45;;;;;;;10.80;5.63;;;7.50;65.10;;;;;;5024585;28;20033;-81
2021/11/09 00:10:11;;;;;;;9.90;4.90;;;7.40;65.10;;;;;;5014984;28;20433;-81
2021/11/09 00:12:44;;;;;;;15.07;8.30;;;7.40;65.40;;;;;;5027309;28;20444;-80
2021/11/09 00:15:13;;;;;;;6.20;4.07;;;7.40;65.50;;;;;;5013333;28;20120;-80
2021/11/09 00:17:39;;;;;;;7.23;3.97;;;7.40;65.50;;;;;;5026217;28;20045;-81
2021/11/09 00:20:07;;;;;;;7.50;3.77;;;7.40;65.40;;;;;;5029865;28;20030;-81
2021/11/09 00:22:33;;;;;;;6.53;3.90;;;7.40;65.30;;;;;;5028992;28;20075;-81
2021/11/09 00:25:00;;;;;;;11.50;5.57;;;7.30;65.30;;;;;;5025528;28;20029;-80
2021/11/09 00:27:26;;;;;;;9.30;5.17;;;7.30;65.40;;;;;;5016878;28;20620;-81
2021/11/09 00:29:52;;;;;;;8.87;5.40;;;7.40;65.40;;;;;;5026939;28;20059;-81
2021/11/09 00:32:18;;;;;;;7.07;5.30;;;7.40;65.50;;;;;;5034733;28;20938;-81
2021/11/09 00:34:45;;;;;;;9.10;5.03;;;7.40;65.50;;;;;;5035738;28;20084;-80
2021/11/09 00:37:11;;;;;;;10.10;4.90;;;7.40;65.70;;;;;;5037384;28;20021;-81
2021/11/09 00:39:37;;;;;;;11.73;5.23;;;7.40;65.90;;;;;;5028588;28;20469;-80
2021/11/09 00:42:04;;;;;;;12.47;5.30;;;7.30;66.00;;;;;;5026232;28;20081;-81
2021/11/09 00:44:30;;;;;;;7.23;4.53;;;7.30;66.10;;;;;;5028625;28;20033;-81
2021/11/09 00:46:56;;;;;;;10.47;6.00;;;7.30;65.90;;;;;;5026302;28;20038;-80
2021/11/09 00:49:23;;;;;;;8.93;5.30;;;7.20;66.00;;;;;;5012052;28;20040;-80
2021/11/09 00:51:50;;;;;;;9.17;4.97;;;7.20;65.90;;;;;;5008190;28;20041;-80
2021/11/09 00:54:17;;;;;;;10.63;4.73;;;7.20;65.90;;;;;;5009827;28;20124;-81
2021/11/09 00:56:45;;;;;;;10.97;4.83;;;7.20;65.80;;;;;;5031710;28;20117;-80
2021/11/09 00:59:11;;;;;;;8.13;4.53;;;7.20;65.80;;;;;;5008348;28;20052;-81
2021/11/09 01:01:38;;;;;;;8.93;5.20;;;7.20;65.80;;;;;;5023754;28;20029;-80
2021/11/09 01:04:05;;;;;;;9.10;4.50;;;7.20;65.60;;;;;;5003850;28;20124;-80
2021/11/09 01:06:30;;;;;;;7.93;4.30;;;7.20;65.60;;;;;;5009865;28;20041;-80
2021/11/09 01:08:56;;;;;;;7.87;4.47;;;7.30;65.70;;;;;;5027804;28;20396;-80
2021/11/09 01:11:22;;;;;;;10.57;4.90;;;7.30;65.50;;;;;;5011646;28;20049;-81
2021/11/09 01:13:49;;;;;;;8.37;3.73;;;7.30;65.50;;;;;;5010517;28;20029;-81
2021/11/09 01:16:16;;;;;;;6.57;4.00;;;7.30;65.50;;;;;;5025661;28;20037;-81
2021/11/09 01:18:51;;;;;;;7.97;4.47;;;7.30;65.70;;;;;;5007667;28;20049;-80
2021/11/09 01:21:18;;;;;;;7.50;4.20;;;7.20;65.70;;;;;;5024989;28;20029;-80
2021/11/09 01:23:49;;;;;;;9.67;4.20;;;7.20;65.70;;;;;;5010199;28;20052;-81
2021/11/09 01:26:17;;;;;;;8.60;3.93;;;7.20;66.10;;;;;;5012870;28;20241;-80
2021/11/09 01:28:45;;;;;;;5.83;3.63;;;7.20;66.10;;;;;;5020848;28;20058;-81
2021/11/09 01:31:10;;;;;;;3.67;1.77;;;7.20;66.10;;;;;;5025374;28;20037;-81
2021/11/09 01:33:37;;;;;;;4.80;3.03;;;7.20;66.20;;;;;;5011668;28;20037;-81
2021/11/09 01:36:04;;;;;;;6.70;3.30;;;7.10;66.10;;;;;;5041273;28;20025;-81
2021/11/09 01:38:30;;;;;;;8.07;4.20;;;7.10;66.20;;;;;;5009755;28;20048;-81
2021/11/09 01:40:57;;;;;;;7.17;4.07;;;7.10;66.30;;;;;;5027966;28;20449;-81
2021/11/09 01:43:24;;;;;;;10.10;4.13;;;7.10;66.30;;;;;;5014627;28;20048;-80
2021/11/09 01:45:50;;;;;;;10.37;4.80;;;7.00;66.20;;;;;;5012326;28;20025;-80
2021/11/09 01:48:18;;;;;;;6.57;4.37;;;6.90;66.10;;;;;;5028208;28;20117;-81
2021/11/09 01:50:51;;;;;;;7.03;4.50;;;6.90;66.30;;;;;;5029783;28;20033;-80
2021/11/09 01:53:18;;;;;;;13.40;4.88;;;6.90;66.40;;;;;;5031243;28;20033;-80
2021/11/09 01:55:44;;;;;;;6.57;3.87;;;6.80;66.40;;;;;;5031896;28;20052;-81
2021/11/09 01:58:12;;;;;;;6.93;3.60;;;6.90;66.40;;;;;;5028702;28;20033;-81
2021/11/09 02:00:46;;;;;;;6.93;4.17;;;6.80;66.50;;;;;;5014733;28;20021;-80
2021/11/09 02:03:12;;;;;;;5.93;2.90;;;6.80;66.60;;;;;;5012370;28;20025;-81
2021/11/09 02:05:39;;;;;;;6.43;3.00;;;6.80;66.60;;;;;;5027573;28;20592;-80
2021/11/09 02:08:05;;;;;;;7.17;3.40;;;6.90;66.60;;;;;;5007832;28;20642;-80
2021/11/09 02:10:35;;;;;;;7.17;3.60;;;6.80;67.10;;;;;;5013031;28;20489;-81
2021/11/09 02:13:01;;;;;;;5.83;3.50;;;6.90;66.60;;;;;;5032581;28;20021;-81
2021/11/09 02:15:30;;;;;;;6.50;3.67;;;6.90;66.30;;;;;;5048602;28;20144;-80
2021/11/09 02:17:57;;;;;;;8.87;4.63;;;6.90;66.20;;;;;;4994318;28;20036;-81
2021/11/09 02:20:26;;;;;;;7.87;4.67;;;6.80;66.90;;;;;;5026833;28;20033;-80
2021/11/09 02:22:53;;;;;;;6.37;4.07;;;6.80;66.60;;;;;;5031277;28;20026;-80
2021/11/09 02:25:23;;;;;;;6.07;3.60;;;6.70;66.50;;;;;;5014449;28;20039;-81
2021/11/09 02:27:50;;;;;;;7.40;3.90;;;6.80;66.60;;;;;;5025664;28;20888;-81
2021/11/09 02:30:22;;;;;;;8.07;4.20;;;6.70;66.40;;;;;;5034968;28;20021;-81
2021/11/09 02:32:49;;;;;;;6.20;4.55;;;6.70;66.60;;;;;;5051535;28;20809;-80
2021/11/09 02:35:14;;;;;;;8.50;4.50;;;6.70;66.60;;;;;;5033838;28;20025;-81
2021/11/09 02:37:41;;;;;;;7.77;4.57;;;6.70;66.50;;;;;;5030233;28;20476;-81
2021/11/09 02:40:09;;;;;;;6.77;3.60;;;6.70;66.80;;;;;;5037879;28;20021;-81
2021/11/09 02:42:38;;;;;;;7.47;4.43;;;6.70;66.70;;;;;;5048266;28;20025;-80
2021/11/09 02:45:12;;;;;;;8.97;4.33;;;6.70;66.60;;;;;;5048832;28;20025;-81
2021/11/09 02:47:53;;;;;;;6.90;3.53;;;6.70;66.70;;;;;;5032826;28;20021;-80
2021/11/09 02:50:22;;;;;;;5.20;3.90;;;6.60;66.70;;;;;;5035147;28;20179;-81
2021/11/09 02:52:56;;;;;;;6.53;3.27;;;6.60;66.90;;;;;;5045515;28;20036;-81
2021/11/09 02:55:28;;;;;;;5.63;3.50;;;6.60;66.80;;;;;;5036612;28;20492;-80
2021/11/09 02:58:03;;;;;;;5.05;2.78;;;6.50;66.60;;;;;;5048130;28;20472;-81
2021/11/09 03:00:33;;;;;;;4.67;2.23;;;6.50;66.60;;;;;;5064306;28;20119;-81
2021/11/09 03:03:07;;;;;;;4.43;2.57;;;6.30;66.60;;;;;;5047321;28;20024;-81
2021/11/09 03:05:45;;;;;;;5.43;2.40;;;6.30;66.60;;;;;;5069348;28;20032;-81
2021/11/09 03:08:33;;;;;;;5.30;2.80;;;6.40;66.30;;;;;;5052565;28;20024;-82
2021/11/09 03:11:00;;;;;;;4.20;2.67;;;6.30;65.80;;;;;;5052130;28;20028;-81
2021/11/09 03:13:26;;;;;;;4.23;2.57;;;6.30;65.80;;;;;;5034922;28;20029;-81
2021/11/09 03:15:58;;;;;;;5.93;2.80;;;6.30;65.80;;;;;;5034188;28;20025;-81
2021/11/09 03:18:26;;;;;;;4.47;2.33;;;6.40;65.70;;;;;;5050414;28;20020;-81
2021/11/09 03:45:35;;;;;;;9.43;2.80;;;6.10;65.20;;;;;;5051056;28;20550;-81
2021/11/09 03:48:05;;;;;;;4.33;2.70;;;6.00;65.40;;;;;;5048496;28;20053;-80
2021/11/09 03:50:33;;;;;;;4.17;2.80;;;6.00;65.30;;;;;;5025420;28;20033;-80
2021/11/09 03:53:03;;;;;;;4.37;2.43;;;5.90;65.40;;;;;;5042479;28;20029;-80
2021/11/09 04:00:39;;;;;;;5.77;3.10;;;5.90;65.40;;;;;;5059454;28;20521;-81
2021/11/09 04:03:34;;;;;;;7.50;3.00;;;5.90;65.40;;;;;;5046389;28;20111;-80
2021/11/09 04:14:18;;;;;;;5.90;2.90;;;5.60;66.10;;;;;;5052161;28;20022;-81
2021/11/09 05:12:00;;;;;;;5.47;2.80;;;5.00;66.40;;;;;;5017769;28;20074;-80
2021/11/09 05:14:26;;;;;;;6.47;2.73;;;4.90;66.50;;;;;;5045314;28;20036;-80
2021/11/09 05:16:52;;;;;;;6.57;2.93;;;4.90;66.70;;;;;;5064917;28;20321;-80
2021/11/09 05:19:17;;;;;;;11.57;3.33;;;4.80;66.70;;;;;;5059059;28;20044;-80
2021/11/09 05:21:44;;;;;;;8.70;4.63;;;4.90;66.90;;;;;;5058256;28;20379;-80
2021/11/09 05:24:09;;;;;;;8.83;4.53;;;4.90;66.70;;;;;;5041807;28;20048;-80
2021/11/09 05:26:37;;;;;;;7.57;3.43;;;4.90;66.80;;;;;;5034688;28;20024;-81
2021/11/09 05:29:03;;;;;;;16.13;5.30;;;4.90;66.70;;;;;;5044461;28;20101;-81
2021/11/09 05:31:32;;;;;;;15.73;5.73;;;4.90;66.80;;;;;;5029040;28;20032;-81
2021/11/09 05:33:58;;;;;;;19.30;6.90;;;4.90;66.60;;;;;;5030777;28;20049;-81
2021/11/09 05:36:36;;;;;;;13.70;5.60;;;4.80;66.50;;;;;;5050858;28;21429;-80
2021/11/09 05:39:56;;;;;;;15.70;6.53;;;4.80;66.70;;;;;;5027280;28;20112;-80
2021/11/09 05:41:53;;;;;;;20.70;7.57;;;4.80;66.70;;;;;;5042900;28;20136;-81
2021/11/09 05:44:19;;;;;;;16.37;7.20;;;4.70;66.80;;;;;;5047287;28;20100;-80
2021/11/09 05:46:45;;;;;;;14.63;6.33;;;4.70;66.80;;;;;;5034128;28;20037;-81
2021/11/09 05:49:11;;;;;;;12.77;5.13;;;4.70;66.90;;;;;;5031879;28;20032;-81
2021/11/09 05:51:37;;;;;;;12.33;5.57;;;4.80;66.80;;;;;;5045130;28;20033;-81
2021/11/09 05:54:04;;;;;;;8.03;4.47;;;4.80;66.90;;;;;;5047929;28;20029;-80
2021/11/09 05:56:30;;;;;;;9.80;4.80;;;4.80;67.00;;;;;;5027707;28;24616;-80
2021/11/09 05:58:56;;;;;;;7.63;3.87;;;4.80;66.70;;;;;;5044285;28;20033;-80
2021/11/09 06:01:22;;;;;;;11.10;5.17;;;4.70;66.80;;;;;;5025486;28;20028;-80
2021/11/09 06:03:49;;;;;;;13.00;5.20;;;4.70;66.80;;;;;;5048157;28;20037;-80
2021/11/09 06:06:15;;;;;;;9.77;5.60;;;4.70;66.90;;;;;;5028106;28;20503;-80
2021/11/09 06:08:42;;;;;;;10.90;6.13;;;4.70;66.80;;;;;;5033649;28;20113;-80
2021/11/09 06:11:08;;;;;;;10.23;6.57;;;4.70;66.70;;;;;;5028266;28;20388;-80
2021/11/09 06:13:34;;;;;;;10.43;6.50;;;4.70;66.80;;;;;;5027582;28;20292;-80
2021/11/09 06:16:00;;;;;;;11.50;6.50;;;4.70;66.80;;;;;;5036040;28;20495;-80
2021/11/09 06:18:25;;;;;;;9.63;5.57;;;4.70;67.00;;;;;;5027970;28;20044;-80
2021/11/09 06:20:51;;;;;;;8.47;4.43;;;4.70;67.00;;;;;;5022293;28;20029;-81
2021/11/09 06:23:17;;;;;;;10.23;5.50;;;4.70;67.10;;;;;;5049180;28;20392;-81
2021/11/09 06:25:43;;;;;;;13.33;6.17;;;4.60;66.90;;;;;;5043175;28;20033;-80
2021/11/09 06:28:11;;;;;;;11.67;5.27;;;4.60;67.10;;;;;;5017760;28;20479;-80
2021/11/09 06:30:37;;;;;;;9.60;5.07;;;4.50;67.20;;;;;;5031214;28;20033;-81
2021/11/09 06:33:03;;;;;;;12.60;5.83;;;4.50;67.50;;;;;;5031230;28;20144;-80
2021/11/09 06:35:29;;;;;;;20.17;8.17;;;4.60;67.40;;;;;;5031184;28;20033;-80
2021/11/09 06:37:55;;;;;;;15.73;9.63;;;4.60;67.20;;;;;;5030427;28;20041;-80
2021/11/09 06:40:20;;;;;;;24.40;14.13;;;4.70;67.00;;;;;;5026637;28;20455;-80
2021/11/09 06:42:47;;;;;;;31.53;16.60;;;4.70;67.00;;;;;;5029953;28;20128;-80
2021/11/09 06:45:13;;;;;;;29.93;18.70;;;4.70;66.90;;;;;;5006935;28;20040;-79
2021/11/09 06:47:39;;;;;;;33.57;19.83;;;4.70;66.80;;;;;;5015213;28;20044;-79
2021/11/09 06:50:07;;;;;;;26.23;18.03;;;4.70;67.00;;;;;;5014212;28;20520;-80
2021/11/09 06:52:33;;;;;;;24.63;13.33;;;4.70;67.10;;;;;;5013659;28;20040;-79
2021/11/09 06:54:59;;;;;;;19.37;9.13;;;4.70;67.20;;;;;;5032409;28;20449;-80
2021/11/09 06:57:25;;;;;;;20.30;12.27;;;4.60;67.20;;;;;;5026668;28;20060;-79
2021/11/09 06:59:52;;;;;;;19.03;11.90;;;4.70;67.30;;;;;;5014416;28;20061;-80
2021/11/09 07:02:19;;;;;;;16.43;11.07;;;4.70;67.10;;;;;;5009623;28;20492;-79
2021/11/09 07:04:45;;;;;;;21.73;12.00;;;4.70;67.00;;;;;;5028886;28;20113;-80
2021/11/09 07:07:11;;;;;;;26.47;12.33;;;4.70;67.00;;;;;;5011708;28;20042;-79
2021/11/09 07:09:37;;;;;;;17.20;10.80;;;4.70;67.10;;;;;;5013877;28;20129;-80
2021/11/09 07:12:03;;;;;;;17.77;10.77;;;4.70;67.10;;;;;;5030961;28;20465;-79
2021/11/09 07:14:29;;;;;;;16.77;10.47;;;4.70;67.00;;;;;;5013842;28;20033;-79
2021/11/09 07:16:55;;;;;;;18.23;9.30;;;4.70;66.90;;;;;;5014379;28;20505;-80
2021/11/09 07:19:22;;;;;;;17.07;9.77;;;4.70;67.10;;;;;;5030820;28;20044;-79
2021/11/09 07:21:49;;;;;;;16.60;9.77;;;4.70;67.20;;;;;;5014941;28;20033;-80
2021/11/09 07:24:15;;;;;;;14.83;8.93;;;4.70;67.00;;;;;;5027870;28;20116;-80
2021/11/09 07:26:41;;;;;;;10.70;5.53;;;4.70;66.90;;;;;;5018857;28;20033;-79
2021/11/09 07:29:07;;;;;;;8.33;4.70;;;4.70;67.00;;;;;;5025960;28;20041;-79
2021/11/09 07:31:32;;;;;;;9.37;4.50;;;4.70;67.20;;;;;;5037616;28;20029;-79
2021/11/09 07:33:59;;;;;;;8.60;5.13;;;4.60;67.10;;;;;;5014234;28;20027;-79
2021/11/09 07:36:25;;;;;;;9.67;5.10;;;4.60;67.10;;;;;;5027422;28;20731;-79
2021/11/09 07:38:52;;;;;;;13.17;4.87;;;4.60;67.00;;;;;;5034050;28;20021;-79
2021/11/09 07:41:18;;;;;;;14.10;5.20;;;4.70;67.10;;;;;;5011775;28;20080;-80
2021/11/09 07:43:44;;;;;;;11.73;5.63;;;4.60;66.90;;;;;;5030634;28;20030;-79
2021/11/09 07:46:10;;;;;;;14.17;6.03;;;4.50;67.20;;;;;;5030654;28;20086;-79
2021/11/09 07:48:36;;;;;;;16.03;5.63;;;4.60;67.20;;;;;;5037265;28;20064;-79
2021/11/09 07:51:02;;;;;;;13.73;6.60;;;4.60;67.20;;;;;;5015637;28;20095;-79
2021/11/09 07:53:34;;;;;;;22.90;7.87;;;4.60;67.10;;;;;;5036092;28;20083;-79
2021/11/09 07:58:47;;;;;;;16.03;7.80;;;4.60;67.20;;;;;;5023746;28;20029;-79
2021/11/09 08:01:18;;;;;;;12.43;7.30;;;4.70;67.10;;;;;;5032889;28;20024;-79
2021/11/09 08:09:50;;;;;;;13.93;7.47;;;4.80;66.80;;;;;;4908320;29;20070;-79
2021/11/09 08:12:15;;;;;;;23.53;12.77;;;4.90;66.80;;;;;;5000296;28;20508;-80
2021/11/09 08:14:41;;;;;;;21.67;15.07;;;4.90;66.70;;;;;;5007841;28;20117;-79
2021/11/09 08:17:08;;;;;;;28.87;14.67;;;4.90;66.70;;;;;;5021376;28;20028;-80
2021/11/09 08:19:34;;;;;;;22.13;11.93;;;5.00;66.70;;;;;;5015669;28;20583;-80
2021/11/09 08:22:01;;;;;;;17.27;10.40;;;5.00;66.60;;;;;;5034621;28;20151;-79
2021/11/09 08:24:27;;;;;;;21.27;10.00;;;5.10;66.70;;;;;;5030235;28;20030;-79
2021/11/09 08:26:55;;;;;;;17.50;10.93;;;5.20;66.50;;;;;;5042863;28;20026;-79
2021/11/09 08:29:25;;;;;;;16.80;9.13;;;5.30;66.50;;;;;;5030261;28;20029;-80
2021/11/09 08:31:53;;;;;;;14.30;8.70;;;5.40;66.60;;;;;;5048926;28;20055;-80
2021/11/09 08:34:19;;;;;;;18.23;8.30;;;5.60;66.60;;;;;;5054441;28;20025;-79
2021/11/09 08:36:45;;;;;;;14.17;7.53;;;5.80;66.70;;;;;;5072643;28;20024;-79
2021/11/09 08:39:18;;;;;;;13.80;9.17;;;6.10;67.10;;;;;;5054741;28;20020;-80
2021/11/09 08:41:49;;;;;;;12.35;8.23;;;6.60;67.10;;;;;;5042691;28;20369;-80
2021/11/09 08:44:18;;;;;;;25.47;15.97;;;7.00;66.50;;;;;;5048814;28;20033;-80
2021/11/09 08:46:50;;;;;;;19.27;13.20;;;7.30;65.20;;;;;;5046704;28;20906;-80
2021/11/09 08:49:19;;;;;;;10.67;5.70;;;7.50;64.20;;;;;;5043035;28;20025;-79
2021/11/09 08:51:46;;;;;;;13.17;7.00;;;7.40;63.40;;;;;;5030229;28;20062;-79
2021/11/09 08:54:17;;;;;;;9.60;5.10;;;7.20;63.30;;;;;;5053267;28;20031;-79
2021/11/09 09:04:40;;;;;;;21.77;10.00;;;6.80;63.50;;;;;;5052925;28;20063;-80
2021/11/09 09:07:05;;;;;;;23.30;11.60;;;6.90;63.80;;;;;;5066080;28;20028;-79
2021/11/09 09:09:31;;;;;;;19.73;10.33;;;6.90;63.80;;;;;;5045431;28;20055;-80
2021/11/09 09:11:58;;;;;;;30.47;15.93;;;7.10;63.70;;;;;;5025587;28;20087;-80
2021/11/09 09:14:25;;;;;;;28.37;17.20;;;7.30;63.60;;;;;;5054644;28;20028;-80
2021/11/09 09:16:52;;;;;;;16.20;10.03;;;7.60;63.30;;;;;;5031388;28;20448;-80
2021/11/09 09:19:20;;;;;;;16.17;8.97;;;7.80;62.80;;;;;;5039767;28;20025;-80
2021/11/09 09:21:54;;;;;;;11.27;6.27;;;8.10;62.30;;;;;;5046851;28;20029;-80
2021/11/09 09:24:37;;;;;;;7.97;4.37;;;8.30;61.80;;;;;;5050716;28;20029;-80
2021/11/09 09:54:22;;;;;;;10.13;4.60;;;9.80;57.40;;;;;;5046066;28;20048;-80
2021/11/09 09:56:54;;;;;;;7.13;3.97;;;10.00;57.00;;;;;;5051321;28;20023;-81
2021/11/09 09:59:22;;;;;;;11.40;4.60;;;10.20;56.30;;;;;;5063386;28;20025;-80
2021/11/09 10:02:13;;;;;;;14.97;4.03;;;10.40;55.80;;;;;;5052266;28;20020;-79
2021/11/09 10:04:39;;;;;;;10.83;5.80;;;10.70;55.80;;;;;;5056601;28;20035;-81
2021/11/09 10:07:05;;;;;;;20.17;11.13;;;11.10;55.60;;;;;;5047219;28;20427;-81
2021/11/09 10:09:44;;;;;;;20.73;12.50;;;11.50;55.20;;;;;;5037412;28;20082;-81
2021/11/09 10:12:14;;;;;;;23.20;14.53;;;11.80;54.10;;;;;;5054263;28;20495;-80
2021/11/09 10:14:40;;;;;;;32.33;18.83;;;12.00;54.00;;;;;;5054345;28;20031;-81
2021/11/09 10:17:17;;;;;;;24.17;16.57;;;12.30;53.50;;;;;;5054772;28;20116;-80
2021/11/09 10:19:43;;;;;;;28.10;18.70;;;12.50;52.70;;;;;;5049247;28;20540;-81
2021/11/09 10:22:22;;;;;;;27.73;16.53;;;12.50;52.60;;;;;;5040639;28;20024;-80
2021/11/09 10:25:02;;;;;;;26.27;15.23;;;12.70;51.80;;;;;;5034816;28;20041;-80
2021/11/09 10:27:30;;;;;;;14.97;10.40;;;12.70;51.50;;;;;;5067395;28;20124;-81
2021/11/09 10:29:57;;;;;;;8.80;5.50;;;12.70;51.30;;;;;;5060973;28;20404;-81
2021/11/09 10:32:28;;;;;;;10.90;5.17;;;12.90;51.00;;;;;;5047449;28;20027;-81
2021/11/09 10:34:58;;;;;;;15.07;8.73;;;12.90;49.70;;;;;;5026038;28;20032;-81
2021/11/09 10:37:29;;;;;;;13.13;8.50;;;12.90;49.80;;;;;;5048374;28;20017;-81
2021/11/09 10:40:00;;;;;;;11.67;4.70;;;12.90;49.50;;;;;;5054745;28;20032;-81
2021/11/09 10:42:27;;;;;;;7.80;4.00;;;13.10;49.10;;;;;;5034987;28;20021;-81
2021/11/09 10:45:08;;;;;;;10.03;5.00;;;13.20;48.40;;;;;;5041945;28;20021;-81
2021/11/09 10:47:35;;;;;;;7.60;4.67;;;13.20;48.00;;;;;;5048158;28;20029;-81
2021/11/09 10:50:23;;;;;;;10.20;3.80;;;13.30;48.40;;;;;;5045216;28;20053;-81
2021/11/09 10:53:01;;;;;;;6.82;3.63;;;13.50;48.10;;;;;;5041966;28;20038;-80
2021/11/09 10:55:34;;;;;;;5.80;3.60;;;13.70;47.30;;;;;;5049119;28;20026;-81
2021/11/09 11:03:32;;;;;;;6.90;3.50;;;14.00;46.60;;;;;;5065076;28;20728;-81
2021/11/09 11:06:18;;;;;;;7.95;3.80;;;14.00;46.30;;;;;;5047597;28;20102;-81
2021/11/09 11:09:06;;;;;;;6.32;3.42;;;14.30;46.30;;;;;;5052713;28;20041;-80
2021/11/09 11:11:34;;;;;;;7.97;4.10;;;14.40;46.30;;;;;;5045057;28;20021;-81
2021/11/09 11:14:10;;;;;;;8.25;3.63;;;14.50;46.20;;;;;;5044589;28;20078;-80
2021/11/09 11:17:00;;;;;;;4.97;3.67;;;14.50;45.60;;;;;;5046393;28;20040;-80
2021/11/09 11:19:45;;;;;;;5.38;3.20;;;14.50;45.10;;;;;;5027102;28;20048;-80
2021/11/09 11:22:12;;;;;;;5.33;3.20;;;14.60;45.30;;;;;;5048033;28;20100;-80
2021/11/09 11:24:39;;;;;;;5.90;3.20;;;14.50;45.10;;;;;;5036106;28;20029;-80
2021/11/09 11:27:05;;;;;;;5.88;3.35;;;14.50;45.10;;;;;;5043571;28;20091;-80
2021/11/09 11:29:36;;;;;;;4.47;2.95;;;14.50;45.00;;;;;;5056036;28;20040;-80
2021/11/09 11:32:03;;;;;;;4.35;3.03;;;14.40;44.70;;;;;;5046875;28;20033;-80
2021/11/09 11:34:29;;;;;;;7.97;2.75;;;14.50;44.40;;;;;;5034836;28;20454;-80
2021/11/09 11:36:56;;;;;;;6.63;3.53;;;14.50;44.00;;;;;;5031721;28;20060;-81
2021/11/09 11:39:28;;;;;;;3.58;3.15;;;14.50;43.60;;;;;;5030615;28;20429;-80
2021/11/09 11:42:16;;;;;;;5.07;3.38;;;14.50;43.70;;;;;;5030995;28;20163;-80
2021/11/09 11:44:43;;;;;;;3.85;2.90;;;14.60;43.50;;;;;;5050385;28;20032;-80
2021/11/09 11:47:19;;;;;;;4.63;2.47;;;14.70;43.60;;;;;;5054234;28;20033;-80
2021/11/09 11:49:53;;;;;;;5.22;2.83;;;14.60;43.00;;;;;;5041981;28;20782;-80
2021/11/09 11:52:27;;;;;;;3.72;2.40;;;14.70;43.30;;;;;;5033471;28;20075;-80
2021/11/09 11:55:05;;;;;;;6.15;2.85;;;14.80;43.10;;;;;;5069334;28;20027;-80
2021/11/09 11:57:43;;;;;;;7.38;3.17;;;14.80;42.80;;;;;;5045005;28;20033;-80
2021/11/09 12:00:40;;;;;;;4.67;3.30;;;14.80;42.70;;;;;;5055652;28;20040;-80
2021/11/09 12:03:28;;;;;;;4.15;3.28;;;14.70;42.70;;;;;;5042346;28;20538;-80
2021/11/09 12:05:57;;;;;;;8.85;2.95;;;14.60;42.90;;;;;;5027842;28;20365;-80
2021/11/09 12:08:42;;;;;;;5.60;2.90;;;14.50;42.90;;;;;;5048805;28;20055;-80
2021/11/09 12:11:35;;;;;;;5.03;2.63;;;14.40;42.70;;;;;;5034897;28;20392;-81
2021/11/09 12:14:04;;;;;;;4.28;2.65;;;14.30;42.90;;;;;;5044426;28;20111;-80
2021/11/09 12:16:43;;;;;;;6.10;2.83;;;14.10;42.90;;;;;;5053221;28;20028;-80
2021/11/09 12:19:34;;;;;;;4.97;2.87;;;14.00;42.60;;;;;;5055906;28;20023;-80
2021/11/09 12:22:15;;;;;;;4.60;2.73;;;13.90;42.70;;;;;;5046778;28;20033;-80
2021/11/09 12:24:53;;;;;;;8.23;3.13;;;13.90;42.80;;;;;;5035665;28;20031;-81
2021/11/09 12:27:21;;;;;;;4.33;2.57;;;13.60;42.50;;;;;;5014032;28;20080;-81
2021/11/09 12:29:52;;;;;;;7.77;3.03;;;13.70;42.80;;;;;;5003816;28;20048;-81
2021/11/09 12:32:28;;;;;;;7.87;3.37;;;13.80;42.80;;;;;;5010788;28;20085;-80
2021/11/09 12:35:06;;;;;;;6.13;3.20;;;13.80;42.70;;;;;;5024906;28;20033;-81
2021/11/09 12:38:01;;;;;;;4.57;2.80;;;13.90;42.80;;;;;;5023519;28;20028;-81
2021/11/09 12:40:57;;;;;;;6.20;3.33;;;13.90;42.50;;;;;;5004541;28;20040;-81
2021/11/09 12:43:32;;;;;;;6.50;3.43;;;13.90;43.00;;;;;;5009621;28;20357;-81
2021/11/09 12:46:37;;;;;;;5.90;3.80;;;13.80;43.20;;;;;;5025082;28;20029;-81
2021/11/09 12:49:06;;;;;;;8.57;4.13;;;13.90;43.00;;;;;;5030809;28;20393;-81
2021/11/09 12:51:35;;;;;;;5.60;3.80;;;13.80;43.30;;;;;;5009404;28;20068;-81
2021/11/09 12:54:05;;;;;;;9.13;3.67;;;13.80;43.00;;;;;;5010331;28;20104;-80
2021/11/09 12:56:33;;;;;;;5.90;3.07;;;13.70;43.10;;;;;;5030321;28;20049;-81
2021/11/09 12:59:08;;;;;;;10.97;3.57;;;13.70;42.90;;;;;;5014815;28;20029;-80
2021/11/09 13:09:49;;;;;;;6.45;3.80;;;13.70;43.10;;;;;;5012260;28;20024;-80
2021/11/09 13:12:24;;;;;;;8.70;3.50;;;13.70;43.10;;;;;;5012802;28;20029;-80
2021/11/09 13:15:11;;;;;;;6.93;3.53;;;13.70;43.20;;;;;;5014689;28;20057;-81
2021/11/09 13:17:48;;;;;;;7.37;3.90;;;13.70;43.30;;;;;;5016556;28;20017;-81
2021/11/09 13:23:03;;;;;;;7.57;3.93;;;13.80;43.60;;;;;;5013976;28;20032;-80
2021/11/09 13:25:33;;;;;;;7.03;4.17;;;13.80;43.60;;;;;;5012280;28;20085;-81
2021/11/09 13:28:04;;;;;;;7.83;3.50;;;13.70;43.40;;;;;;4994473;28;20050;-80
2021/11/09 13:30:30;;;;;;;6.63;3.73;;;13.70;43.50;;;;;;4995770;28;20124;-80
2021/11/09 13:32:57;;;;;;;6.20;3.30;;;13.70;43.60;;;;;;5012926;28;20068;-80
2021/11/09 13:35:30;;;;;;;5.70;3.40;;;13.60;43.60;;;;;;5014050;28;20104;-81
2021/11/09 13:38:18;;;;;;;7.60;3.45;;;13.70;43.70;;;;;;5030408;28;20026;-81
2021/11/09 13:40:50;;;;;;;10.33;4.60;;;13.60;43.80;;;;;;5018723;28;20040;-80
2021/11/09 13:43:23;;;;;;;12.80;4.00;;;13.60;43.90;;;;;;5054128;28;20033;-80
2021/11/09 13:46:06;;;;;;;5.87;3.83;;;13.60;43.90;;;;;;5020422;28;20030;-80
2021/11/09 13:48:35;;;;;;;7.40;4.13;;;13.50;43.60;;;;;;5037000;28;20026;-80
2021/11/09 13:51:10;;;;;;;8.50;4.43;;;13.40;43.70;;;;;;5016479;28;20041;-81
2021/11/09 13:53:41;;;;;;;10.23;4.17;;;13.30;43.80;;;;;;5023545;28;20071;-80
2021/11/09 13:56:12;;;;;;;7.27;4.07;;;13.30;44.00;;;;;;5018487;28;20087;-80
2021/11/09 13:58:39;;;;;;;5.63;4.20;;;13.20;44.10;;;;;;5018257;28;20496;-80
2021/11/09 14:01:05;;;;;;;9.87;4.10;;;13.20;44.20;;;;;;5035749;28;20022;-80
2021/11/09 14:16:39;;;;;;;5.30;3.70;;;12.70;45.70;;;;;;5026569;28;20025;-80
2021/11/09 14:19:12;;;;;;;9.93;2.90;;;12.60;46.00;;;;;;5017215;28;20029;-80
2021/11/09 14:21:42;;;;;;;8.67;4.13;;;12.60;46.10;;;;;;5017746;28;20025;-81
2021/11/09 14:24:14;;;;;;;11.60;4.47;;;12.50;46.20;;;;;;5050556;28;20033;-80
2021/11/09 14:26:44;;;;;;;17.47;9.37;;;12.50;46.40;;;;;;5030600;28;20031;-81
2021/11/09 14:29:18;;;;;;;26.47;13.43;;;12.50;46.60;;;;;;5040062;28;20466;-81
2021/11/09 14:31:57;;;;;;;24.40;11.30;;;12.50;47.10;;;;;;5054467;28;20112;-81
2021/11/09 14:34:23;;;;;;;20.77;10.30;;;12.40;47.50;;;;;;5049934;28;20033;-80
2021/11/09 14:36:50;;;;;;;9.33;4.17;;;12.40;47.70;;;;;;5052389;28;20094;-80
2021/11/09 14:39:18;;;;;;;17.90;6.67;;;12.40;48.10;;;;;;5061604;28;20012;-80
2021/11/09 14:44:54;;;;;;;30.50;13.87;;;12.30;48.30;;;;;;5055603;28;20776;-80
2021/11/09 14:47:21;;;;;;;30.50;12.03;;;12.30;48.60;;;;;;5029402;28;20021;-80
2021/11/09 14:50:01;;;;;;;29.27;11.17;;;12.30;48.40;;;;;;5074090;28;20410;-80
2021/11/09 14:52:28;;;;;;;22.50;9.63;;;12.20;48.40;;;;;;5053882;28;20483;-80
2021/11/09 14:55:31;;;;;;;12.10;5.63;;;12.00;48.80;;;;;;5036745;28;20484;-81
2021/11/09 14:57:57;;;;;;;8.45;4.10;;;12.00;49.00;;;;;;5035618;28;20070;-80
2021/11/09 15:00:24;;;;;;;9.03;4.60;;;12.00;49.00;;;;;;5032443;28;20030;-80
2021/11/09 15:03:05;;;;;;;5.33;2.87;;;11.90;49.00;;;;;;5046952;28;20035;-81
2021/11/09 15:05:33;;;;;;;9.33;4.90;;;11.90;49.40;;;;;;5035777;28;20040;-81
2021/11/09 15:11:10;;;;;;;6.17;4.40;;;11.80;50.00;;;;;;4989607;28;20069;-81
2021/11/09 15:29:47;;;;;;;3.07;1.83;;;11.30;50.70;;;;;;5048724;28;20116;-81
2021/11/09 15:32:23;;;;;;;2.60;1.97;;;11.20;51.00;;;;;;5041060;28;20036;-81
2021/11/09 15:34:54;;;;;;;6.70;2.60;;;11.20;51.40;;;;;;5060126;28;20116;-81
2021/11/09 15:37:30;;;;;;;7.33;2.80;;;11.00;51.70;;;;;;5031269;28;20037;-81
2021/11/09 15:39:59;;;;;;;7.87;4.30;;;11.00;52.10;;;;;;5033277;28;20108;-80
2021/11/09 15:42:29;;;;;;;4.37;3.27;;;10.90;52.30;;;;;;5016625;28;20037;-80
2021/11/09 15:44:55;;;;;;;4.73;3.30;;;10.90;52.50;;;;;;5051805;28;20029;-80
2021/11/09 15:47:22;;;;;;;5.40;4.07;;;10.90;52.50;;;;;;5033202;28;20032;-79
2021/11/09 15:49:48;;;;;;;8.60;3.80;;;10.80;52.20;;;;;;5034933;28;20119;-80
2021/11/09 15:52:14;;;;;;;10.53;3.00;;;10.70;52.40;;;;;;5044906;28;20449;-80
2021/11/09 15:54:40;;;;;;;4.40;3.00;;;10.60;52.50;;;;;;5046447;28;20037;-80
2021/11/09 15:57:06;;;;;;;6.23;3.40;;;10.50;52.70;;;;;;5044035;28;20029;-80
2021/11/09 15:59:34;;;;;;;8.00;4.90;;;10.50;53.00;;;;;;5036496;28;20044;-80
2021/11/09 16:02:00;;;;;;;7.03;3.67;;;10.40;53.30;;;;;;5033307;28;20025;-81
2021/11/09 16:04:37;;;;;;;8.13;3.63;;;10.50;53.50;;;;;;5047899;28;20021;-80
2021/11/09 16:07:03;;;;;;;10.40;4.77;;;10.50;53.50;;;;;;5048623;28;20044;-80
2021/11/09 16:09:29;;;;;;;6.33;2.67;;;10.40;53.40;;;;;;5028890;28;20508;-80
2021/11/09 16:11:56;;;;;;;9.10;3.23;;;10.30;53.30;;;;;;5039291;28;20036;-80